createdAt,value
2019-05-17T00:01:42.140Z,43.10
2019-05-17T00:04:08.531Z,43.10
2019-05-17T00:06:37.834Z,43.10
2019-05-17T00:09:07.787Z,43.20
2019-05-17T00:11:40.169Z,43.10
2019-05-17T00:14:13.412Z,43.10
2019-05-17T00:16:43.774Z,43.00
2019-05-17T00:19:13.186Z,43.00
2019-05-17T00:21:47.676Z,43.10
2019-05-17T00:24:20.343Z,43.00
2019-05-17T00:26:49.794Z,43.10
2019-05-17T00:29:18.889Z,43.10
2019-05-17T00:31:48.860Z,43.70
2019-05-17T00:34:19.596Z,43.00
2019-05-17T00:36:50.684Z,43.10
2019-05-17T00:39:31.381Z,43.10
2019-05-17T00:42:02.596Z,43.40
2019-05-17T00:44:32.984Z,43.10
2019-05-17T00:47:06.591Z,43.20
2019-05-17T00:49:39.473Z,43.10
2019-05-17T00:52:08.665Z,43.10
2019-05-17T00:54:43.187Z,43.10
2019-05-17T00:57:13.921Z,43.10
2019-05-17T00:59:48.237Z,43.10
2019-05-17T01:02:17.639Z,43.00
2019-05-17T01:04:47.568Z,43.10
2019-05-17T01:07:17.735Z,43.80
2019-05-17T01:09:47.309Z,43.10
2019-05-17T01:12:16.578Z,43.10
2019-05-17T01:14:47.779Z,43.10
2019-05-17T01:17:17.022Z,43.10
2019-05-17T01:19:47.167Z,43.10
2019-05-17T01:22:16.978Z,43.00
2019-05-17T01:24:49.281Z,43.10
2019-05-17T01:27:18.777Z,43.00
2019-05-17T01:29:47.965Z,43.10
2019-05-17T01:32:17.588Z,43.00
2019-05-17T01:34:48.574Z,43.00
2019-05-17T01:37:20.467Z,43.00
2019-05-17T01:39:49.729Z,43.10
2019-05-17T01:42:21.082Z,43.00
2019-05-17T01:44:53.097Z,43.10
2019-05-17T01:47:22.169Z,43.00
2019-05-17T01:49:51.403Z,43.00
2019-05-17T01:52:20.746Z,43.10
2019-05-17T01:54:52.975Z,43.10
2019-05-17T01:57:23.224Z,43.00
2019-05-17T01:59:52.394Z,43.10
2019-05-17T02:02:28.991Z,43.10
2019-05-17T02:05:02.151Z,43.00
2019-05-17T02:07:31.441Z,43.10
2019-05-17T02:10:01.126Z,43.10
2019-05-17T02:12:37.903Z,43.20
2019-05-17T02:15:07.565Z,43.10
2019-05-17T02:17:37.292Z,43.20
2019-05-17T02:20:10.268Z,43.90
2019-05-17T02:22:40.719Z,43.20
2019-05-17T02:25:16.560Z,43.20
2019-05-17T02:27:46.423Z,43.10
2019-05-17T02:30:16.033Z,43.20
2019-05-17T02:32:53.860Z,43.20
2019-05-17T02:35:23.774Z,43.10
2019-05-17T02:37:56.453Z,43.10
2019-05-17T02:40:25.972Z,43.20
2019-05-17T02:42:55.215Z,43.20
2019-05-17T02:45:24.633Z,43.20
2019-05-17T02:47:56.901Z,43.30
2019-05-17T02:50:43.158Z,43.20
2019-05-17T02:53:18.147Z,43.20
2019-05-17T02:55:53.906Z,43.20
2019-05-17T02:58:23.669Z,43.20
2019-05-17T03:00:53.545Z,42.70
2019-05-17T03:03:26.527Z,43.20
2019-05-17T03:05:56.000Z,43.30
2019-05-17T03:08:33.633Z,43.30
2019-05-17T03:11:03.503Z,43.30
2019-05-17T03:13:33.216Z,43.30
2019-05-17T03:16:04.236Z,43.20
2019-05-17T03:18:35.140Z,43.30
2019-05-17T03:21:13.880Z,43.30
2019-05-17T03:23:43.840Z,43.30
2019-05-17T03:26:14.802Z,43.30
2019-05-17T03:28:45.921Z,43.40
2019-05-17T03:31:19.737Z,43.30
2019-05-17T03:33:55.830Z,43.40
2019-05-17T03:36:26.148Z,43.30
2019-05-17T03:38:53.537Z,43.40
2019-05-17T03:41:29.201Z,43.30
2019-05-17T03:44:03.217Z,43.50
2019-05-17T03:46:35.796Z,43.50
2019-05-17T03:49:12.850Z,43.50
2019-05-17T03:51:44.670Z,43.40
2019-05-17T03:54:17.751Z,44.10
2019-05-17T03:56:55.831Z,43.50
2019-05-17T03:59:25.401Z,43.40
2019-05-17T04:01:54.764Z,43.50
2019-05-17T04:04:26.100Z,43.40
2019-05-17T04:07:03.674Z,43.40
2019-05-17T04:09:37.757Z,43.40
2019-05-17T04:12:06.685Z,43.40
2019-05-17T04:14:42.931Z,43.50
2019-05-17T04:17:14.564Z,43.40
2019-05-17T04:19:48.462Z,43.40
2019-05-17T04:22:23.870Z,43.40
2019-05-17T04:24:53.320Z,43.40
2019-05-17T04:27:26.515Z,43.40
2019-05-17T04:29:56.128Z,43.50
2019-05-17T04:32:25.479Z,44.20
2019-05-17T04:35:03.679Z,43.50
2019-05-17T04:37:33.569Z,43.50
2019-05-17T04:40:13.626Z,43.50
2019-05-17T04:42:44.838Z,43.50
2019-05-17T04:45:15.788Z,43.60
2019-05-17T04:47:52.869Z,43.60
2019-05-17T04:50:27.490Z,43.50
2019-05-17T04:53:02.343Z,43.50
2019-05-17T04:55:29.515Z,43.50
2019-05-17T04:58:04.063Z,43.50
2019-05-17T05:00:34.395Z,43.50
2019-05-17T05:03:12.858Z,43.50
2019-05-17T05:05:43.728Z,43.60
2019-05-17T05:08:28.231Z,44.00
2019-05-17T05:10:57.546Z,44.40
2019-05-17T05:13:27.076Z,44.90
2019-05-17T05:16:05.758Z,45.20
2019-05-17T05:18:41.932Z,45.40
2019-05-17T05:21:12.834Z,45.80
2019-05-17T05:23:42.710Z,45.90
2019-05-17T05:26:12.421Z,46.00
2019-05-17T05:28:52.667Z,46.00
2019-05-17T05:31:29.006Z,46.00
2019-05-17T05:34:06.549Z,46.20
2019-05-17T05:36:41.886Z,46.20
2019-05-17T05:39:11.723Z,46.20
2019-05-17T05:41:46.286Z,46.30
2019-05-17T05:44:38.461Z,46.30
2019-05-17T05:47:23.558Z,46.30
2019-05-17T05:50:17.629Z,46.40
2019-05-17T05:52:46.063Z,46.40
2019-05-17T05:55:15.408Z,46.30
2019-05-17T05:57:52.294Z,46.20
2019-05-17T06:00:25.417Z,46.20
2019-05-17T06:02:57.664Z,45.90
2019-05-17T06:05:26.947Z,45.90
2019-05-17T06:07:56.109Z,45.20
2019-05-17T06:10:25.657Z,45.00
2019-05-17T06:12:58.824Z,44.90
2019-05-17T06:15:46.116Z,44.80
2019-05-17T06:18:22.485Z,44.80
2019-05-17T06:21:05.418Z,44.80
2019-05-17T06:23:53.925Z,45.00
2019-05-17T06:26:26.056Z,44.80
2019-05-17T06:28:58.486Z,44.80
2019-05-17T06:31:27.855Z,44.60
2019-05-17T06:34:17.981Z,44.60
2019-05-17T06:36:47.396Z,44.50
2019-05-17T06:39:35.837Z,44.80
2019-05-17T06:42:08.904Z,44.50
2019-05-17T06:44:41.836Z,44.80
2019-05-17T06:47:15.167Z,44.80
2019-05-17T06:49:53.676Z,45.10
2019-05-17T06:52:22.900Z,45.10
2019-05-17T06:54:52.576Z,45.10
2019-05-17T06:57:24.892Z,45.10
2019-05-17T06:59:55.514Z,45.20
2019-05-17T07:02:40.319Z,45.10
2019-05-17T07:08:34.122Z,44.50
2019-05-17T07:11:09.714Z,44.10
2019-05-17T07:13:43.482Z,43.70
2019-05-17T07:16:30.119Z,43.40
2019-05-17T07:20:00.770Z,43.20
2019-05-17T07:23:20.365Z,43.20
2019-05-17T07:25:55.899Z,43.30
2019-05-17T07:28:40.361Z,43.40
2019-05-17T07:31:04.227Z,43.40
2019-05-17T07:33:42.523Z,43.70
2019-05-17T07:36:30.706Z,43.80
2019-05-17T07:39:00.814Z,43.90
2019-05-17T07:41:36.179Z,44.00
2019-05-17T07:44:11.758Z,44.10
2019-05-17T07:46:43.852Z,44.20
2019-05-17T07:49:15.108Z,44.20
2019-05-17T07:51:53.101Z,44.30
2019-05-17T07:54:24.448Z,44.40
2019-05-17T07:56:53.510Z,44.60
2019-05-17T07:59:23.476Z,44.60
2019-05-17T08:01:57.018Z,44.60
2019-05-17T08:04:51.878Z,44.80
2019-05-17T08:07:23.352Z,44.80
2019-05-17T08:10:06.107Z,45.00
2019-05-17T08:12:44.037Z,44.90
2019-05-17T08:15:23.872Z,45.00
2019-05-17T08:18:12.497Z,45.10
2019-05-17T08:20:46.620Z,45.20
2019-05-17T08:23:30.419Z,45.00
2019-05-17T08:26:40.590Z,45.00
2019-05-17T08:29:10.247Z,45.10
2019-05-17T08:31:40.406Z,45.00
2019-05-17T08:34:17.175Z,45.10
2019-05-17T08:37:20.412Z,45.00
2019-05-17T08:40:25.908Z,45.00
2019-05-17T08:43:01.833Z,45.00
2019-05-17T08:45:52.463Z,45.00
2019-05-17T08:48:35.453Z,45.00
2019-05-17T08:51:30.494Z,44.90
2019-05-17T08:54:33.650Z,45.00
2019-05-17T08:57:21.572Z,44.80
2019-05-17T09:00:20.714Z,44.90
2019-05-17T09:03:30.160Z,44.80
2019-05-17T09:06:43.111Z,44.80
2019-05-17T09:09:20.373Z,44.80
2019-05-17T09:12:29.860Z,44.80
2019-05-17T09:15:10.548Z,44.80
2019-05-17T09:17:49.881Z,44.70
2019-05-17T09:20:31.402Z,44.80
2019-05-17T09:23:21.035Z,44.70
2019-05-17T09:25:59.457Z,44.80
2019-05-17T09:28:30.198Z,44.70
2019-05-17T09:31:02.695Z,44.70
2019-05-17T09:36:46.770Z,44.70
2019-05-17T09:39:25.827Z,44.70
2019-05-17T09:41:59.639Z,44.80
2019-05-17T09:44:40.565Z,44.70
2019-05-17T09:47:25.473Z,44.70
2019-05-17T09:50:32.996Z,44.80
2019-05-17T09:53:21.749Z,44.80
2019-05-17T09:55:56.377Z,44.70
2019-05-17T09:58:31.101Z,44.70
2019-05-17T10:01:10.382Z,44.70
2019-05-17T10:03:50.375Z,44.70
2019-05-17T10:06:20.399Z,44.70
2019-05-17T10:09:00.182Z,44.70
2019-05-17T10:11:49.344Z,44.70
2019-05-17T10:14:52.555Z,44.70
2019-05-17T10:17:21.888Z,44.70
2019-05-17T10:20:19.969Z,44.80
2019-05-17T10:23:04.221Z,44.70
2019-05-17T10:25:49.675Z,44.70
2019-05-17T10:28:23.720Z,44.70
2019-05-17T10:30:57.457Z,44.70
2019-05-17T10:33:40.068Z,44.70
2019-05-17T10:36:14.509Z,44.70
2019-05-17T10:38:50.029Z,44.70
2019-05-17T10:41:31.114Z,44.70
2019-05-17T10:44:41.031Z,44.70
2019-05-17T10:47:03.488Z,44.70
2019-05-17T10:49:40.049Z,44.60
2019-05-17T10:52:24.741Z,44.60
2019-05-17T10:55:05.575Z,44.70
2019-05-17T10:57:38.293Z,44.70
2019-05-17T11:00:09.856Z,44.60
2019-05-17T11:02:41.086Z,44.60
2019-05-17T11:05:14.971Z,44.30
2019-05-17T11:07:52.001Z,44.20
2019-05-17T11:10:21.549Z,44.20
2019-05-17T11:13:04.561Z,44.00
2019-05-17T11:15:48.955Z,44.00
2019-05-17T11:18:38.286Z,43.90
2019-05-17T11:21:09.963Z,43.90
2019-05-17T11:23:52.208Z,43.90
2019-05-17T11:26:40.872Z,43.80
2019-05-17T11:29:27.911Z,44.00
2019-05-17T11:32:00.865Z,44.10
2019-05-17T11:37:30.739Z,46.20
2019-05-17T11:40:20.782Z,46.70
2019-05-17T11:43:00.648Z,47.20
2019-05-17T11:45:45.840Z,47.40
2019-05-17T11:48:17.898Z,47.40
2019-05-17T11:50:49.499Z,47.40
2019-05-17T11:53:18.839Z,47.30
2019-05-17T11:55:48.535Z,47.20
2019-05-17T11:58:24.046Z,47.20
2019-05-17T12:03:49.635Z,47.30
2019-05-17T12:06:21.302Z,47.30
2019-05-17T12:08:57.802Z,47.20
2019-05-17T12:11:38.288Z,47.10
2019-05-17T12:14:15.628Z,47.30
2019-05-17T12:16:48.264Z,46.90
2019-05-17T12:19:40.532Z,46.90
2019-05-17T12:22:09.726Z,46.80
2019-05-17T12:24:51.865Z,46.70
2019-05-17T12:27:25.189Z,46.50
2019-05-17T12:32:50.659Z,46.50
2019-05-17T12:35:27.524Z,46.60
2019-05-17T12:38:02.119Z,46.30
2019-05-17T12:40:32.025Z,46.00
2019-05-17T12:43:01.419Z,45.70
2019-05-17T12:45:30.665Z,45.50
2019-05-17T12:48:00.319Z,45.40
2019-05-17T12:50:29.839Z,45.30
2019-05-17T12:52:59.289Z,45.40
2019-05-17T12:55:29.193Z,45.50
2019-05-17T12:57:58.391Z,45.60
2019-05-17T13:00:27.532Z,45.80
2019-05-17T13:03:09.552Z,46.50
2019-05-17T13:05:38.975Z,47.40
2019-05-17T13:08:11.107Z,48.10
2019-05-17T13:10:40.531Z,48.50
2019-05-17T13:13:12.878Z,48.80
2019-05-17T13:15:42.433Z,48.80
2019-05-17T13:18:14.470Z,49.30
2019-05-17T13:20:43.847Z,48.80
2019-05-17T13:23:13.146Z,48.70
2019-05-17T13:25:45.346Z,48.70
2019-05-17T13:28:16.214Z,48.70
2019-05-17T13:31:42.897Z,48.50
2019-05-17T13:34:37.249Z,48.40
2019-05-17T13:37:10.284Z,49.00
2019-05-17T13:39:44.465Z,49.20
2019-05-17T13:42:19.126Z,49.20
2019-05-17T13:45:03.781Z,49.50
2019-05-17T13:47:37.524Z,50.20
2019-05-17T13:50:08.011Z,49.40
2019-05-17T13:52:52.986Z,49.50
2019-05-17T13:55:40.617Z,49.50
2019-05-17T13:58:19.135Z,49.80
2019-05-17T14:00:48.771Z,49.80
2019-05-17T14:03:21.029Z,49.70
2019-05-17T14:05:50.334Z,49.70
2019-05-17T14:08:21.229Z,49.60
2019-05-17T14:10:53.906Z,49.50
2019-05-17T14:13:56.338Z,50.00
2019-05-17T14:16:28.779Z,49.60
2019-05-17T14:19:05.195Z,49.60
2019-05-17T14:21:39.921Z,49.60
2019-05-17T14:24:41.933Z,49.40
2019-05-17T14:27:42.830Z,49.40
2019-05-17T14:30:19.611Z,49.40
2019-05-17T14:33:39.919Z,49.30
2019-05-17T14:36:15.876Z,49.30
2019-05-17T14:39:03.445Z,49.30
2019-05-17T14:41:33.121Z,49.10
2019-05-17T14:44:30.290Z,49.00
2019-05-17T14:47:59.195Z,48.90
2019-05-17T14:50:51.435Z,48.90
2019-05-17T14:54:07.862Z,48.90
2019-05-17T14:56:46.068Z,48.80
2019-05-17T14:59:31.883Z,48.90
2019-05-17T15:02:35.737Z,48.70
2019-05-17T15:05:14.214Z,48.70
2019-05-17T15:07:45.256Z,48.50
2019-05-17T15:10:15.338Z,48.30
2019-05-17T15:12:44.692Z,48.00
2019-05-17T15:15:25.769Z,47.40
2019-05-17T15:17:49.381Z,48.10
2019-05-17T15:20:19.146Z,47.90
2019-05-17T15:22:49.936Z,47.70
2019-05-17T15:28:45.286Z,47.30
2019-05-17T15:31:25.430Z,47.20
2019-05-17T15:33:59.342Z,47.10
2019-05-17T15:36:28.538Z,47.00
2019-05-17T15:38:58.037Z,46.60
2019-05-17T15:41:27.500Z,47.30
2019-05-17T15:44:00.202Z,46.40
2019-05-17T15:46:29.654Z,46.60
2019-05-17T15:48:58.893Z,46.50
2019-05-17T15:51:28.028Z,46.50
2019-05-17T15:53:57.350Z,46.40
2019-05-17T15:56:28.348Z,46.30
2019-05-17T15:59:04.919Z,46.30
2019-05-17T16:01:39.638Z,46.20
2019-05-17T16:04:10.733Z,46.20
2019-05-17T16:06:43.093Z,46.20
2019-05-17T16:09:14.902Z,46.80
2019-05-17T16:11:47.570Z,46.00
2019-05-17T16:14:23.532Z,46.00
2019-05-17T16:16:52.653Z,45.80
2019-05-17T16:19:24.081Z,45.80
2019-05-17T16:21:53.723Z,46.00
2019-05-17T16:24:23.251Z,46.70
2019-05-17T16:26:53.954Z,47.50
2019-05-17T16:29:24.386Z,48.50
2019-05-17T16:31:53.977Z,48.60
2019-05-17T16:34:23.672Z,49.90
2019-05-17T16:36:52.942Z,51.70
2019-05-17T16:39:22.817Z,52.70
2019-05-17T16:42:01.485Z,51.80
2019-05-17T16:44:37.052Z,51.70
2019-05-17T16:47:06.353Z,51.30
2019-05-17T16:49:38.654Z,51.30
2019-05-17T16:52:07.760Z,51.40
2019-05-17T16:55:05.126Z,51.10
2019-05-17T16:57:39.333Z,50.80
2019-05-17T17:00:30.567Z,50.80
2019-05-17T17:03:02.387Z,50.70
2019-05-17T17:11:13.181Z,50.20
2019-05-17T17:13:42.061Z,50.10
2019-05-17T17:16:15.387Z,49.80
2019-05-17T17:18:44.467Z,49.60
2019-05-17T17:21:13.785Z,49.60
2019-05-17T17:23:42.630Z,49.40
2019-05-17T17:26:11.690Z,49.30
2019-05-17T17:28:40.877Z,49.30
2019-05-17T17:31:13.594Z,49.20
2019-05-17T17:33:43.201Z,49.10
2019-05-17T17:36:12.311Z,49.10
2019-05-17T17:38:41.555Z,49.00
2019-05-17T17:41:11.056Z,49.00
2019-05-17T17:43:40.019Z,48.90
2019-05-17T17:46:09.174Z,48.80
2019-05-17T17:48:38.775Z,48.70
2019-05-17T17:51:08.076Z,48.60
2019-05-17T17:53:37.151Z,48.40
2019-05-17T17:56:07.848Z,48.40
2019-05-17T17:58:37.225Z,48.30
2019-05-17T18:01:06.660Z,48.20
2019-05-17T18:03:37.240Z,48.10
2019-05-17T18:06:08.077Z,48.00
2019-05-17T18:08:37.523Z,48.10
2019-05-17T18:11:10.563Z,48.10
2019-05-17T18:13:39.830Z,48.10
2019-05-17T18:16:11.806Z,48.00
2019-05-17T18:18:52.908Z,48.00
2019-05-17T18:21:22.903Z,47.80
2019-05-17T18:23:53.328Z,47.80
2019-05-17T18:26:22.573Z,47.70
2019-05-17T18:28:51.693Z,47.50
2019-05-17T18:31:20.652Z,47.50
2019-05-17T18:33:49.741Z,47.50
2019-05-17T18:36:18.938Z,47.40
2019-05-17T18:38:49.762Z,47.20
2019-05-17T18:41:21.952Z,46.40
2019-05-17T18:43:51.416Z,45.60
2019-05-17T18:46:22.215Z,45.30
2019-05-17T18:48:51.204Z,45.10
2019-05-17T18:51:20.490Z,45.00
2019-05-17T18:53:49.689Z,44.80
2019-05-17T18:56:18.944Z,44.70
2019-05-17T18:58:48.436Z,44.60
2019-05-17T19:01:17.920Z,44.70
2019-05-17T19:03:47.117Z,44.70
2019-05-17T19:06:16.157Z,44.70
2019-05-17T19:08:45.080Z,44.70
2019-05-17T19:11:15.915Z,44.80
2019-05-17T19:13:44.941Z,44.70
2019-05-17T19:16:14.065Z,44.70
2019-05-17T19:18:43.267Z,44.80
2019-05-17T19:21:12.339Z,44.80
2019-05-17T19:23:41.531Z,44.70
2019-05-17T19:26:20.437Z,44.70
2019-05-17T19:28:49.685Z,44.60
2019-05-17T19:31:18.967Z,44.90
2019-05-17T19:33:48.074Z,44.50
2019-05-17T19:36:17.163Z,44.40
2019-05-17T19:38:48.964Z,44.40
2019-05-17T19:41:19.811Z,44.40
2019-05-17T19:43:48.847Z,44.40
2019-05-17T19:46:18.468Z,44.40
2019-05-17T19:48:47.615Z,44.40
2019-05-17T19:51:16.851Z,44.40
2019-05-17T19:53:46.063Z,44.50
2019-05-17T19:56:15.168Z,44.50
2019-05-17T19:58:47.595Z,44.50
2019-05-17T20:01:19.933Z,44.40
2019-05-17T20:03:49.001Z,44.60
2019-05-17T20:06:20.874Z,44.60
2019-05-17T20:08:49.935Z,44.70
2019-05-17T20:11:33.395Z,44.70
2019-05-17T20:13:49.768Z,44.80
2019-05-17T20:16:18.897Z,44.70
2019-05-17T20:18:48.157Z,44.80
2019-05-17T20:21:17.130Z,44.80
2019-05-17T20:23:46.130Z,44.90
2019-05-17T20:26:15.291Z,44.90
2019-05-17T20:28:44.613Z,44.90
2019-05-17T20:31:13.813Z,44.90
2019-05-17T20:33:47.779Z,45.00
2019-05-17T20:36:16.960Z,45.00
2019-05-17T20:38:54.915Z,44.90
2019-05-17T20:41:25.854Z,45.00
2019-05-17T20:43:54.930Z,45.10
2019-05-17T20:46:27.049Z,45.00
2019-05-17T20:49:06.489Z,45.00
2019-05-17T20:51:45.775Z,45.10
2019-05-17T20:54:18.688Z,45.20
2019-05-17T20:56:47.923Z,45.10
2019-05-17T20:59:16.945Z,45.10
2019-05-17T21:02:02.855Z,45.20
2019-05-17T21:04:36.331Z,45.20
2019-05-17T21:07:13.315Z,45.10
2019-05-17T21:09:46.611Z,45.20
2019-05-17T21:12:15.746Z,45.10
2019-05-17T21:14:49.186Z,45.10
2019-05-17T21:17:19.938Z,45.10
2019-05-17T21:19:51.840Z,45.20
2019-05-17T21:22:28.942Z,45.30
2019-05-17T21:24:58.409Z,45.10
2019-05-17T21:27:29.682Z,45.20
2019-05-17T21:29:58.695Z,45.20
2019-05-17T21:32:30.933Z,45.20
2019-05-17T21:35:05.481Z,45.30
2019-05-17T21:37:38.154Z,45.30
2019-05-17T21:40:09.931Z,45.30
2019-05-17T21:42:38.828Z,45.40
2019-05-17T21:45:08.620Z,45.40
2019-05-17T21:47:46.132Z,45.30
2019-05-17T21:50:15.090Z,45.40
2019-05-17T21:52:44.463Z,45.30
2019-05-17T21:55:15.563Z,45.30
2019-05-17T21:57:48.057Z,45.30
2019-05-17T22:00:38.726Z,45.30
2019-05-17T22:03:09.142Z,45.20
2019-05-17T22:05:38.467Z,45.20
2019-05-17T22:08:16.201Z,45.10
2019-05-17T22:10:45.789Z,45.10
2019-05-17T22:13:21.389Z,45.10
2019-05-17T22:16:19.603Z,45.00
2019-05-17T22:18:45.472Z,45.00
2019-05-17T22:21:19.672Z,45.00
2019-05-17T22:23:50.915Z,45.00
2019-05-17T22:26:20.773Z,44.80
2019-05-17T22:29:11.317Z,45.00
2019-05-17T22:31:53.855Z,44.90
2019-05-17T22:34:23.325Z,44.90
2019-05-17T22:37:01.906Z,44.90
2019-05-17T22:39:39.033Z,44.90
2019-05-17T22:42:13.778Z,44.90
2019-05-17T22:44:43.193Z,44.90
2019-05-17T22:47:12.998Z,44.90
2019-05-17T22:49:48.740Z,44.90
2019-05-17T22:52:21.289Z,44.90
2019-05-17T22:55:03.707Z,44.90
2019-05-17T22:57:36.272Z,44.80
2019-05-17T23:00:05.985Z,44.80
2019-05-17T23:02:42.554Z,44.90
2019-05-17T23:05:12.071Z,44.90
2019-05-17T23:07:41.670Z,44.80
2019-05-17T23:10:12.828Z,44.80
2019-05-17T23:12:43.390Z,44.90
2019-05-17T23:15:12.527Z,44.80
2019-05-17T23:17:43.459Z,44.80
2019-05-17T23:20:17.359Z,44.80
2019-05-17T23:22:51.444Z,44.80
2019-05-17T23:25:20.952Z,44.80
2019-05-17T23:28:00.757Z,44.80
2019-05-17T23:30:33.344Z,44.90
2019-05-17T23:33:10.518Z,44.80
2019-05-17T23:35:40.022Z,44.80
2019-05-17T23:38:09.427Z,44.80
2019-05-17T23:40:50.244Z,44.80
2019-05-17T23:43:22.773Z,44.80
2019-05-17T23:45:55.040Z,44.80
2019-05-17T23:48:33.771Z,44.80
2019-05-17T23:51:03.010Z,44.80
2019-05-17T23:53:35.170Z,44.80
2019-05-17T23:56:04.474Z,44.80
2019-05-17T23:58:33.861Z,44.80
